createdAt,value
2019-03-11T00:00:25.138Z,3.00
2019-03-11T00:02:53.739Z,3.04
2019-03-11T00:05:22.258Z,3.04
2019-03-11T00:07:50.777Z,3.07
2019-03-11T00:10:19.362Z,3.13
2019-03-11T00:12:48.165Z,3.12
2019-03-11T00:15:16.740Z,3.01
2019-03-11T00:17:45.235Z,2.91
2019-03-11T00:20:13.788Z,2.88
2019-03-11T00:22:42.389Z,2.91
2019-03-11T00:25:10.942Z,2.86
2019-03-11T00:27:39.471Z,2.91
2019-03-11T00:30:10.451Z,3.01
2019-03-11T00:32:38.925Z,2.94
2019-03-11T00:35:07.444Z,2.87
2019-03-11T00:37:35.924Z,2.95
2019-03-11T00:40:06.846Z,2.83
2019-03-11T00:42:35.335Z,2.83
2019-03-11T00:45:04.903Z,2.91
2019-03-11T00:47:33.349Z,2.91
2019-03-11T00:50:01.805Z,2.79
2019-03-11T00:52:30.397Z,2.95
2019-03-11T00:54:59.061Z,2.95
2019-03-11T00:57:27.539Z,2.95
2019-03-11T00:59:56.078Z,2.99
2019-03-11T01:02:24.570Z,2.97
2019-03-11T01:04:53.054Z,2.89
2019-03-11T01:07:21.413Z,2.89
2019-03-11T01:09:50.150Z,2.87
2019-03-11T01:12:18.619Z,2.98
2019-03-11T01:14:47.074Z,2.96
2019-03-11T01:17:15.574Z,2.89
2019-03-11T01:19:44.014Z,2.81
2019-03-11T01:22:12.741Z,2.96
2019-03-11T01:24:41.219Z,2.83
2019-03-11T01:27:09.994Z,2.87
2019-03-11T01:29:38.480Z,2.79
2019-03-11T01:32:06.990Z,2.78
2019-03-11T01:34:35.443Z,2.83
2019-03-11T01:37:03.963Z,2.82
2019-03-11T01:39:32.408Z,2.82
2019-03-11T01:42:00.875Z,2.82
2019-03-11T01:44:29.282Z,2.91
2019-03-11T01:46:57.731Z,2.98
2019-03-11T01:49:26.235Z,2.82
2019-03-11T01:51:54.670Z,2.87
2019-03-11T01:54:23.464Z,2.87
2019-03-11T01:56:51.911Z,2.90
2019-03-11T01:59:20.368Z,2.90
2019-03-11T02:01:48.883Z,2.94
2019-03-11T02:04:17.477Z,2.97
2019-03-11T02:06:45.952Z,3.08
2019-03-11T02:09:14.575Z,2.94
2019-03-11T02:11:43.000Z,2.97
2019-03-11T02:14:11.519Z,2.97
2019-03-11T02:16:40.148Z,2.96
2019-03-11T02:19:08.589Z,3.07
2019-03-11T02:21:37.102Z,3.09
2019-03-11T02:24:05.544Z,3.09
2019-03-11T02:26:34.029Z,2.93
2019-03-11T02:29:02.534Z,2.77
2019-03-11T02:31:31.032Z,2.70
2019-03-11T02:33:59.566Z,2.62
2019-03-11T02:36:28.048Z,2.62
2019-03-11T02:38:56.579Z,2.73
2019-03-11T02:41:25.185Z,2.86
2019-03-11T02:43:53.750Z,2.67
2019-03-11T02:46:22.311Z,2.58
2019-03-11T02:48:50.981Z,2.60
2019-03-11T02:51:19.492Z,2.64
2019-03-11T02:53:48.246Z,2.51
2019-03-11T02:56:16.597Z,2.50
2019-03-11T02:58:45.071Z,2.42
2019-03-11T03:01:17.587Z,2.26
2019-03-11T03:03:47.697Z,2.39
2019-03-11T03:06:17.528Z,2.44
2019-03-11T03:08:46.105Z,2.40
2019-03-11T03:11:14.618Z,2.26
2019-03-11T03:13:43.111Z,2.29
2019-03-11T03:16:11.834Z,2.29
2019-03-11T03:18:40.237Z,2.32
2019-03-11T03:21:08.702Z,2.31
2019-03-11T03:23:37.134Z,2.31
2019-03-11T03:26:05.681Z,2.32
2019-03-11T03:28:34.275Z,2.31
2019-03-11T03:31:02.683Z,2.38
2019-03-11T03:33:31.249Z,2.44
2019-03-11T03:35:59.772Z,2.37
2019-03-11T03:38:30.824Z,2.39
2019-03-11T03:40:58.707Z,2.32
2019-03-11T03:43:27.246Z,2.37
2019-03-11T03:45:55.728Z,2.31
2019-03-11T03:48:24.291Z,2.22
2019-03-11T03:50:52.879Z,2.22
2019-03-11T03:53:21.401Z,2.29
2019-03-11T03:55:50.001Z,2.38
2019-03-11T03:58:18.489Z,2.36
2019-03-11T04:00:46.906Z,2.43
2019-03-11T04:03:15.403Z,2.40
2019-03-11T04:05:44.152Z,2.42
2019-03-11T04:08:12.602Z,2.44
2019-03-11T04:10:41.067Z,2.50
2019-03-11T04:13:09.920Z,2.48
2019-03-11T04:15:38.438Z,2.46
2019-03-11T04:18:11.435Z,2.38
2019-03-11T04:20:39.947Z,2.43
2019-03-11T04:23:08.500Z,2.42
2019-03-11T04:25:37.171Z,2.33
2019-03-11T04:28:05.630Z,2.39
2019-03-11T04:30:34.222Z,2.44
2019-03-11T04:33:02.843Z,2.44
2019-03-11T04:35:31.202Z,2.37
2019-03-11T04:37:59.690Z,2.38
2019-03-11T04:40:28.125Z,2.36
2019-03-11T04:42:56.609Z,2.35
2019-03-11T04:45:25.080Z,2.38
2019-03-11T04:47:53.632Z,2.34
2019-03-11T04:50:22.093Z,2.42
2019-03-11T04:52:50.667Z,2.41
2019-03-11T04:55:19.194Z,2.50
2019-03-11T04:57:57.081Z,2.53
2019-03-11T05:00:30.252Z,2.50
2019-03-11T05:02:58.768Z,2.49
2019-03-11T05:05:27.316Z,2.51
2019-03-11T05:07:56.106Z,2.55
2019-03-11T05:10:24.622Z,2.55
2019-03-11T05:12:53.085Z,2.52
2019-03-11T05:15:21.607Z,2.56
2019-03-11T05:17:50.128Z,2.67
2019-03-11T05:20:18.774Z,2.67
2019-03-11T05:22:47.283Z,2.63
2019-03-11T05:25:16.104Z,2.69
2019-03-11T05:27:44.879Z,2.72
2019-03-11T05:30:20.211Z,2.72
2019-03-11T05:32:48.846Z,2.75
2019-03-11T05:35:17.536Z,2.72
2019-03-11T05:37:46.068Z,2.75
2019-03-11T05:40:19.658Z,2.73
2019-03-11T05:42:48.182Z,2.72
2019-03-11T05:45:20.186Z,2.77
2019-03-11T05:47:48.695Z,2.81
2019-03-11T05:50:18.033Z,2.88
2019-03-11T05:52:46.617Z,2.88
2019-03-11T05:55:15.367Z,2.87
2019-03-11T05:57:43.943Z,2.88
2019-03-11T06:00:21.707Z,2.92
2019-03-11T06:02:50.523Z,2.96
2019-03-11T06:05:19.043Z,3.01
2019-03-11T06:07:47.591Z,2.98
2019-03-11T06:10:16.602Z,3.02
2019-03-11T06:12:45.251Z,3.07
2019-03-11T06:15:14.655Z,3.11
2019-03-11T06:17:43.296Z,3.06
2019-03-11T06:20:31.987Z,3.04
2019-03-11T06:23:02.203Z,3.08
2019-03-11T06:25:30.702Z,3.06
2019-03-11T06:27:59.288Z,3.03
2019-03-11T06:30:27.957Z,3.04
2019-03-11T06:32:56.536Z,3.02
2019-03-11T06:35:25.076Z,3.07
2019-03-11T06:37:53.610Z,3.08
2019-03-11T06:40:22.440Z,3.06
2019-03-11T06:42:50.947Z,3.10
2019-03-11T06:45:19.507Z,3.19
2019-03-11T06:47:47.959Z,3.21
2019-03-11T06:50:16.524Z,3.30
2019-03-11T06:52:45.064Z,3.36
2019-03-11T06:55:13.913Z,3.38
2019-03-11T06:57:42.443Z,3.31
2019-03-11T07:00:18.688Z,3.29
2019-03-11T07:02:47.304Z,3.34
2019-03-11T07:05:20.250Z,3.34
2019-03-11T07:07:46.117Z,3.32
2019-03-11T07:10:15.894Z,3.35
2019-03-11T07:12:44.420Z,3.25
2019-03-11T07:15:14.256Z,3.24
2019-03-11T07:17:42.630Z,3.19
2019-03-11T07:20:13.292Z,3.30
2019-03-11T07:22:41.811Z,3.34
2019-03-11T07:25:11.383Z,3.43
2019-03-11T07:27:39.949Z,3.57
2019-03-11T07:30:17.307Z,3.59
2019-03-11T07:32:45.818Z,3.50
2019-03-11T07:35:14.398Z,3.73
2019-03-11T07:37:43.252Z,3.83
2019-03-11T07:40:16.078Z,3.72
2019-03-11T07:42:44.619Z,3.83
2019-03-11T07:45:14.135Z,3.82
2019-03-11T07:47:42.747Z,4.00
2019-03-11T07:50:12.671Z,4.04
2019-03-11T07:52:41.264Z,3.93
2019-03-11T07:55:13.568Z,4.00
2019-03-11T07:57:42.175Z,4.00
2019-03-11T08:00:15.529Z,4.03
2019-03-11T08:02:44.456Z,3.87
2019-03-11T08:05:12.911Z,3.68
2019-03-11T08:07:41.335Z,3.74
2019-03-11T08:10:13.029Z,3.71
2019-03-11T08:12:41.491Z,3.63
2019-03-11T08:15:14.437Z,3.76
2019-03-11T08:17:42.970Z,3.76
2019-03-11T08:20:13.029Z,3.88
2019-03-11T08:22:41.550Z,3.82
2019-03-11T08:25:11.236Z,3.71
2019-03-11T08:27:39.822Z,3.81
2019-03-11T08:30:19.511Z,3.87
2019-03-11T08:32:48.295Z,3.88
2019-03-11T08:35:16.827Z,3.98
2019-03-11T08:37:45.354Z,3.94
2019-03-11T08:40:18.527Z,3.98
2019-03-11T08:42:47.037Z,3.98
2019-03-11T08:45:16.698Z,3.84
2019-03-11T08:47:45.289Z,3.87
2019-03-11T08:50:15.497Z,3.79
2019-03-11T08:52:44.069Z,3.83
2019-03-11T08:55:12.864Z,3.74
2019-03-11T08:57:41.634Z,3.84
2019-03-11T09:00:12.677Z,3.93
2019-03-11T09:02:41.185Z,3.99
2019-03-11T09:05:11.683Z,4.02
2019-03-11T09:07:40.342Z,4.05
2019-03-11T09:10:13.723Z,3.98
2019-03-11T09:12:42.532Z,4.02
2019-03-11T09:15:20.728Z,4.07
2019-03-11T09:17:49.400Z,4.07
2019-03-11T09:20:18.472Z,3.89
2019-03-11T09:22:46.985Z,3.83
2019-03-11T09:25:24.427Z,3.93
2019-03-11T09:27:53.039Z,3.85
2019-03-11T09:30:23.635Z,3.98
2019-03-11T09:32:52.484Z,4.13
2019-03-11T09:35:21.073Z,4.30
2019-03-11T09:37:49.672Z,4.35
2019-03-11T09:40:19.237Z,4.31
2019-03-11T09:42:47.709Z,4.28
2019-03-11T09:45:17.210Z,4.18
2019-03-11T09:47:45.742Z,4.37
2019-03-11T09:50:17.464Z,4.37
2019-03-11T09:52:46.100Z,4.60
2019-03-11T09:55:25.671Z,4.63
2019-03-11T09:57:54.223Z,4.75
2019-03-11T10:00:29.978Z,4.81
2019-03-11T10:02:58.533Z,4.84
2019-03-11T10:05:27.334Z,4.74
2019-03-11T10:07:55.989Z,4.64
2019-03-11T10:10:31.375Z,4.69
2019-03-11T10:12:59.908Z,4.60
2019-03-11T10:15:28.730Z,4.65
2019-03-11T10:17:57.314Z,4.64
2019-03-11T10:20:26.081Z,4.74
2019-03-11T10:22:54.620Z,4.64
2019-03-11T10:25:23.161Z,4.48
2019-03-11T10:27:51.741Z,4.55
2019-03-11T10:30:21.186Z,4.61
2019-03-11T10:32:49.882Z,4.73
2019-03-11T10:35:31.395Z,4.74
2019-03-11T10:37:49.455Z,4.72
2019-03-11T10:40:25.096Z,4.80
2019-03-11T10:42:53.782Z,5.11
2019-03-11T10:45:31.379Z,5.62
2019-03-11T10:47:52.732Z,5.87
2019-03-11T10:50:21.853Z,5.85
2019-03-11T10:52:50.481Z,5.45
2019-03-11T10:55:23.729Z,5.51
2019-03-11T10:57:52.362Z,5.45
2019-03-11T11:00:26.310Z,5.66
2019-03-11T11:02:54.758Z,5.80
2019-03-11T11:05:23.364Z,5.78
2019-03-11T11:07:52.199Z,6.01
2019-03-11T11:10:20.732Z,5.78
2019-03-11T11:12:49.266Z,5.79
2019-03-11T11:15:28.791Z,5.66
2019-03-11T11:17:57.306Z,5.60
2019-03-11T11:20:26.046Z,5.19
2019-03-11T11:22:55.142Z,5.03
2019-03-11T11:25:24.729Z,5.15
2019-03-11T11:27:53.148Z,5.22
2019-03-11T11:30:28.311Z,5.29
2019-03-11T11:32:56.859Z,5.27
2019-03-11T11:35:25.375Z,5.20
2019-03-11T11:37:53.932Z,5.07
2019-03-11T11:40:29.222Z,5.06
2019-03-11T11:42:57.825Z,4.95
2019-03-11T11:45:27.133Z,4.77
2019-03-11T11:47:55.977Z,4.80
2019-03-11T11:50:25.326Z,4.61
2019-03-11T11:52:54.034Z,4.51
2019-03-11T11:55:25.837Z,4.30
2019-03-11T11:57:54.357Z,4.31
2019-03-11T12:00:31.413Z,3.98
2019-03-11T12:03:00.202Z,4.05
2019-03-11T12:05:28.701Z,3.86
2019-03-11T12:07:57.342Z,3.93
2019-03-11T12:10:27.127Z,3.94
2019-03-11T12:12:56.004Z,3.81
2019-03-11T12:15:24.556Z,3.79
2019-03-11T12:17:53.246Z,3.81
2019-03-11T12:20:31.522Z,3.86
2019-03-11T12:23:00.161Z,4.00
2019-03-11T12:25:28.708Z,4.10
2019-03-11T12:27:58.382Z,4.17
2019-03-11T12:30:30.154Z,4.19
2019-03-11T12:32:58.942Z,4.22
2019-03-11T12:35:27.747Z,4.17
2019-03-11T12:37:56.456Z,4.18
2019-03-11T12:40:25.007Z,4.19
2019-03-11T12:42:53.528Z,4.09
2019-03-11T12:45:23.067Z,4.08
2019-03-11T12:47:51.545Z,4.13
2019-03-11T12:50:25.309Z,4.26
2019-03-11T12:52:54.179Z,4.51
2019-03-11T12:55:22.893Z,4.63
2019-03-11T12:57:51.745Z,4.85
2019-03-11T13:00:21.325Z,5.01
2019-03-11T13:02:49.938Z,4.91
2019-03-11T13:05:18.776Z,4.93
2019-03-11T13:07:47.619Z,4.83
2019-03-11T13:10:28.737Z,4.77
2019-03-11T13:12:57.314Z,4.80
2019-03-11T13:15:26.180Z,4.72
2019-03-11T13:17:54.979Z,4.90
2019-03-11T13:20:35.107Z,4.89
2019-03-11T13:23:03.661Z,5.05
2019-03-11T13:25:32.323Z,5.07
2019-03-11T13:28:01.135Z,5.14
2019-03-11T13:30:29.633Z,5.62
2019-03-11T13:32:58.466Z,6.03
2019-03-11T13:35:26.923Z,6.08
2019-03-11T13:37:55.459Z,6.29
2019-03-11T13:40:24.078Z,6.41
2019-03-11T13:42:52.567Z,6.04
2019-03-11T13:45:21.036Z,5.56
2019-03-11T13:47:49.528Z,5.58
2019-03-11T13:50:18.868Z,5.42
2019-03-11T13:52:47.575Z,5.37
2019-03-11T13:55:16.873Z,5.46
2019-03-11T13:57:45.867Z,5.59
2019-03-11T14:00:17.765Z,5.74
2019-03-11T14:02:46.297Z,5.91
2019-03-11T14:05:14.940Z,5.68
2019-03-11T14:07:43.658Z,5.73
2019-03-11T14:10:13.275Z,5.71
2019-03-11T14:12:41.898Z,5.79
2019-03-11T14:15:15.883Z,5.62
2019-03-11T14:17:44.523Z,5.38
2019-03-11T14:20:13.879Z,5.55
2019-03-11T14:22:42.356Z,5.84
2019-03-11T14:25:11.925Z,6.08
2019-03-11T14:27:40.503Z,6.41
2019-03-11T14:30:18.247Z,6.42
2019-03-11T14:32:46.876Z,7.09
2019-03-11T14:35:15.820Z,7.78
2019-03-11T14:37:44.394Z,8.55
2019-03-11T14:40:17.269Z,8.27
2019-03-11T14:42:45.793Z,8.59
2019-03-11T14:45:20.037Z,9.52
2019-03-11T14:47:48.530Z,10.25
2019-03-11T14:50:17.894Z,9.51
2019-03-11T14:52:46.576Z,10.02
2019-03-11T14:55:15.529Z,11.25
2019-03-11T14:57:44.112Z,11.97
2019-03-11T15:00:14.951Z,12.16
2019-03-11T15:02:43.425Z,12.21
2019-03-11T15:05:12.036Z,12.75
2019-03-11T15:07:40.849Z,12.34
2019-03-11T15:10:11.387Z,10.63
2019-03-11T15:12:39.976Z,10.03
2019-03-11T15:15:13.551Z,10.45
2019-03-11T15:17:42.063Z,10.02
2019-03-11T15:20:11.615Z,9.05
2019-03-11T15:22:40.355Z,8.30
2019-03-11T15:25:10.946Z,8.33
2019-03-11T15:27:39.543Z,8.23
2019-03-11T15:30:11.119Z,8.12
2019-03-11T15:32:39.711Z,8.36
2019-03-11T15:35:09.630Z,8.41
2019-03-11T15:37:38.259Z,8.34
2019-03-11T15:40:14.558Z,8.41
2019-03-11T15:42:43.188Z,7.96
2019-03-11T15:45:16.265Z,7.90
2019-03-11T15:47:44.889Z,7.87
2019-03-11T15:50:16.219Z,7.62
2019-03-11T15:52:44.681Z,7.70
2019-03-11T15:55:15.017Z,7.47
2019-03-11T15:57:43.811Z,7.39
2019-03-11T16:00:15.101Z,7.00
2019-03-11T16:02:43.560Z,6.98
2019-03-11T16:05:12.164Z,7.03
2019-03-11T16:07:40.774Z,6.61
2019-03-11T16:10:16.709Z,6.52
2019-03-11T16:12:42.979Z,6.55
2019-03-11T16:15:13.079Z,6.24
2019-03-11T16:17:48.958Z,6.19
2019-03-11T16:20:23.086Z,6.11
2019-03-11T16:22:51.781Z,6.08
2019-03-11T16:25:20.568Z,6.03
2019-03-11T16:27:49.089Z,5.98
2019-03-11T16:30:25.201Z,5.96
2019-03-11T16:33:01.393Z,6.00
2019-03-11T16:35:25.631Z,6.00
2019-03-11T16:37:54.127Z,5.88
2019-03-11T16:40:22.681Z,5.91
2019-03-11T16:42:51.140Z,5.87
2019-03-11T16:45:20.669Z,5.92
2019-03-11T16:47:49.480Z,5.85
2019-03-11T16:50:26.401Z,5.86
2019-03-11T16:52:55.034Z,5.84
2019-03-11T16:55:25.978Z,5.86
2019-03-11T16:57:54.345Z,5.83
2019-03-11T17:00:27.102Z,5.79
2019-03-11T17:02:55.700Z,5.77
2019-03-11T17:05:25.133Z,5.61
2019-03-11T17:07:53.894Z,5.49
2019-03-11T17:10:23.160Z,5.48
2019-03-11T17:12:51.780Z,5.51
2019-03-11T17:15:20.282Z,5.50
2019-03-11T17:17:51.902Z,5.54
2019-03-11T17:20:20.660Z,5.54
2019-03-11T17:22:49.680Z,5.54
2019-03-11T17:25:23.127Z,5.51
2019-03-11T17:27:55.284Z,5.44
2019-03-11T17:30:36.612Z,5.40
2019-03-11T17:32:57.026Z,5.37
2019-03-11T17:35:25.455Z,5.39
2019-03-11T17:37:53.900Z,5.35
2019-03-11T17:40:24.374Z,5.36
2019-03-11T17:42:53.417Z,5.33
2019-03-11T17:45:22.329Z,5.30
2019-03-11T17:47:51.158Z,5.32
2019-03-11T17:50:30.489Z,5.38
2019-03-11T17:52:59.010Z,5.41
2019-03-11T17:55:27.848Z,5.40
2019-03-11T17:58:08.866Z,5.45
2019-03-11T18:00:39.047Z,5.53
2019-03-11T18:03:07.621Z,5.62
2019-03-11T18:05:36.119Z,5.66
2019-03-11T18:08:04.784Z,5.63
2019-03-11T18:10:33.387Z,5.63
2019-03-11T18:13:01.988Z,5.66
2019-03-11T18:15:30.579Z,5.57
2019-03-11T18:17:59.011Z,5.66
2019-03-11T18:20:29.468Z,5.64
2019-03-11T18:22:58.029Z,5.65
2019-03-11T18:25:27.295Z,5.61
2019-03-11T18:27:55.893Z,5.63
2019-03-11T18:30:31.843Z,5.66
2019-03-11T18:33:00.542Z,5.64
2019-03-11T18:35:29.129Z,5.56
2019-03-11T18:38:04.157Z,5.29
2019-03-11T18:40:27.894Z,5.10
2019-03-11T18:42:56.427Z,4.97
2019-03-11T18:45:25.057Z,4.89
2019-03-11T18:47:53.557Z,4.84
2019-03-11T18:50:24.013Z,4.83
2019-03-11T18:52:52.628Z,4.85
2019-03-11T18:55:21.418Z,4.84
2019-03-11T18:57:50.133Z,4.84
2019-03-11T19:00:19.587Z,4.77
2019-03-11T19:02:48.202Z,4.74
2019-03-11T19:05:21.154Z,4.67
2019-03-11T19:07:49.781Z,4.65
2019-03-11T19:10:18.662Z,4.61
2019-03-11T19:12:48.179Z,4.60
2019-03-11T19:15:24.335Z,4.58
2019-03-11T19:17:52.438Z,4.57
2019-03-11T19:20:22.267Z,4.58
2019-03-11T19:22:50.835Z,4.58
2019-03-11T19:25:19.942Z,4.60
2019-03-11T19:27:49.179Z,4.57
2019-03-11T19:30:23.875Z,4.59
2019-03-11T19:32:52.930Z,4.63
2019-03-11T19:35:21.517Z,4.61
2019-03-11T19:37:53.362Z,4.60
2019-03-11T19:40:23.982Z,4.55
2019-03-11T19:42:52.462Z,4.52
2019-03-11T19:45:21.133Z,4.50
2019-03-11T19:47:49.747Z,4.39
2019-03-11T19:50:19.299Z,4.33
2019-03-11T19:52:57.927Z,4.29
2019-03-11T19:55:18.470Z,4.25
2019-03-11T19:57:49.640Z,4.05
2019-03-11T20:00:23.370Z,3.95
2019-03-11T20:02:52.362Z,3.89
2019-03-11T20:05:23.415Z,3.87
2019-03-11T20:07:51.968Z,3.89
2019-03-11T20:10:20.493Z,3.95
2019-03-11T20:12:48.930Z,3.99
2019-03-11T20:15:18.520Z,4.11
2019-03-11T20:17:47.482Z,4.11
2019-03-11T20:20:17.259Z,4.11
2019-03-11T20:22:46.878Z,4.10
2019-03-11T20:25:31.919Z,4.02
2019-03-11T20:28:00.555Z,3.95
2019-03-11T20:30:29.235Z,3.94
2019-03-11T20:32:58.065Z,3.98
2019-03-11T20:35:26.981Z,4.02
2019-03-11T20:37:55.568Z,4.06
2019-03-11T20:40:24.124Z,4.07
2019-03-11T20:42:52.880Z,4.08
2019-03-11T20:45:21.941Z,4.10
2019-03-11T20:47:50.685Z,4.12
2019-03-11T20:50:19.611Z,4.12
2019-03-11T20:52:48.462Z,4.15
2019-03-11T20:55:18.218Z,4.14
2019-03-11T20:57:46.960Z,4.16
2019-03-11T21:00:18.035Z,4.17
2019-03-11T21:02:46.626Z,4.14
2019-03-11T21:05:30.067Z,4.09
2019-03-11T21:07:58.684Z,4.09
2019-03-11T21:10:27.284Z,4.07
2019-03-11T21:12:56.066Z,4.04
2019-03-11T21:15:25.324Z,4.02
2019-03-11T21:17:54.087Z,3.98
2019-03-11T21:20:23.404Z,3.98
2019-03-11T21:22:52.114Z,3.95
2019-03-11T21:25:21.526Z,3.93
2019-03-11T21:27:50.818Z,3.92
2019-03-11T21:30:23.217Z,3.91
2019-03-11T21:32:53.751Z,3.91
2019-03-11T21:35:22.399Z,3.92
2019-03-11T21:37:54.305Z,3.96
2019-03-11T21:40:23.164Z,3.95
2019-03-11T21:42:51.980Z,3.92
2019-03-11T21:45:33.052Z,3.94
2019-03-11T21:47:51.359Z,3.96
2019-03-11T21:50:30.686Z,3.98
2019-03-11T21:52:59.319Z,4.00
2019-03-11T21:55:27.952Z,4.00
2019-03-11T21:57:56.659Z,4.01
2019-03-11T22:00:34.731Z,3.99
2019-03-11T22:02:55.491Z,4.00
2019-03-11T22:05:24.198Z,4.00
2019-03-11T22:07:52.807Z,3.98
2019-03-11T22:10:21.692Z,4.01
2019-03-11T22:12:50.253Z,3.98
2019-03-11T22:15:21.027Z,3.96
2019-03-11T22:17:49.551Z,3.90
2019-03-11T22:20:18.343Z,3.94
2019-03-11T22:22:46.881Z,3.95
2019-03-11T22:25:16.453Z,3.93
2019-03-11T22:27:44.929Z,3.93
2019-03-11T22:30:17.855Z,3.91
2019-03-11T22:32:46.478Z,3.90
2019-03-11T22:35:15.180Z,3.93
2019-03-11T22:37:44.074Z,3.90
2019-03-11T22:40:19.477Z,3.92
2019-03-11T22:42:48.175Z,3.85
2019-03-11T22:45:20.744Z,3.83
2019-03-11T22:47:50.440Z,3.83
2019-03-11T22:50:18.965Z,3.86
2019-03-11T22:52:47.577Z,3.87
2019-03-11T22:55:16.984Z,3.87
2019-03-11T22:57:45.513Z,3.83
2019-03-11T23:00:26.899Z,3.81
2019-03-11T23:02:55.421Z,3.79
2019-03-11T23:05:24.234Z,3.76
2019-03-11T23:07:54.322Z,3.74
2019-03-11T23:10:23.127Z,3.77
2019-03-11T23:12:51.845Z,3.78
2019-03-11T23:15:20.298Z,3.74
2019-03-11T23:17:48.887Z,3.75
2019-03-11T23:20:17.762Z,3.74
2019-03-11T23:22:46.240Z,3.75
2019-03-11T23:25:15.161Z,3.75
2019-03-11T23:27:43.870Z,3.72
2019-03-11T23:30:14.190Z,3.70
2019-03-11T23:32:42.740Z,3.69
2019-03-11T23:35:11.559Z,3.69
2019-03-11T23:37:40.199Z,3.70
2019-03-11T23:40:09.522Z,3.75
2019-03-11T23:42:38.166Z,3.70
2019-03-11T23:45:08.806Z,3.76
2019-03-11T23:47:37.271Z,3.79
2019-03-11T23:50:19.227Z,3.79
2019-03-11T23:52:46.601Z,3.81
2019-03-11T23:55:15.118Z,3.80
2019-03-11T23:57:43.598Z,3.73
